sensor_id;sensor_type;location;lat;lon;timestamp;temperature;humidity
46335;DHT22;32051;48.882;9.210;2023-02-22T06:22:22;4.70;99.90
46335;DHT22;32051;48.882;9.210;2023-02-22T06:24:48;4.60;99.90
46335;DHT22;32051;48.882;9.210;2023-02-22T06:27:14;4.60;99.90
46335;DHT22;32051;48.882;9.210;2023-02-22T06:29:44;4.60;99.90
46335;DHT22;32051;48.882;9.210;2023-02-22T06:32:09;4.60;99.90
46335;DHT22;32051;48.882;9.210;2023-02-22T06:34:35;4.60;99.90
46335;DHT22;32051;48.882;9.210;2023-02-22T06:37:01;4.70;99.90
46335;DHT22;32051;48.882;9.210;2023-02-22T06:39:26;4.70;99.90
46335;DHT22;32051;48.882;9.210;2023-02-22T06:41:52;4.70;99.90
46335;DHT22;32051;48.882;9.210;2023-02-22T06:44:20;4.70;99.90
46335;DHT22;32051;48.882;9.210;2023-02-22T06:46:47;4.80;99.90
46335;DHT22;32051;48.882;9.210;2023-02-22T06:49:13;4.80;99.90
46335;DHT22;32051;48.882;9.210;2023-02-22T06:51:39;4.90;99.90
46335;DHT22;32051;48.882;9.210;2023-02-22T06:54:05;4.90;99.90
46335;DHT22;32051;48.882;9.210;2023-02-22T06:56:30;5.00;99.90
46335;DHT22;32051;48.882;9.210;2023-02-22T06:58:56;5.00;99.90
46335;DHT22;32051;48.882;9.210;2023-02-22T07:01:22;5.00;99.90
46335;DHT22;32051;48.882;9.210;2023-02-22T07:03:48;5.00;99.90
46335;DHT22;32051;48.882;9.210;2023-02-22T07:06:14;5.10;99.90
46335;DHT22;32051;48.882;9.210;2023-02-22T07:08:40;5.10;99.90
46335;DHT22;32051;48.882;9.210;2023-02-22T07:11:05;5.20;99.90
46335;DHT22;32051;48.882;9.210;2023-02-22T07:13:31;5.30;99.90
46335;DHT22;32051;48.882;9.210;2023-02-22T07:15:57;5.40;99.90
46335;DHT22;32051;48.882;9.210;2023-02-22T07:18:22;5.50;99.90
46335;DHT22;32051;48.882;9.210;2023-02-22T07:20:49;5.60;99.90
46335;DHT22;32051;48.882;9.210;2023-02-22T07:23:16;5.60;99.90
46335;DHT22;32051;48.882;9.210;2023-02-22T07:25:42;5.80;99.90
46335;DHT22;32051;48.882;9.210;2023-02-22T07:28:08;5.90;99.90
46335;DHT22;32051;48.882;9.210;2023-02-22T07:30:37;6.00;99.90
46335;DHT22;32051;48.882;9.210;2023-02-22T07:33:05;6.10;99.90
46335;DHT22;32051;48.882;9.210;2023-02-22T07:35:33;6.20;99.90
46335;DHT22;32051;48.882;9.210;2023-02-22T07:38:04;6.30;99.90
46335;DHT22;32051;48.882;9.210;2023-02-22T07:40:30;6.30;99.90
46335;DHT22;32051;48.882;9.210;2023-02-22T07:43:08;6.40;99.90
46335;DHT22;32051;48.882;9.210;2023-02-22T07:45:37;6.50;99.90
46335;DHT22;32051;48.882;9.210;2023-02-22T07:48:04;6.60;99.90
46335;DHT22;32051;48.882;9.210;2023-02-22T07:50:32;6.60;99.90
46335;DHT22;32051;48.882;9.210;2023-02-22T07:53:01;6.70;99.90
46335;DHT22;32051;48.882;9.210;2023-02-22T07:55:29;6.70;99.90
46335;DHT22;32051;48.882;9.210;2023-02-22T07:57:58;6.80;99.90
46335;DHT22;32051;48.882;9.210;2023-02-22T08:00:26;6.80;99.90
46335;DHT22;32051;48.882;9.210;2023-02-22T08:02:53;6.80;99.90
46335;DHT22;32051;48.882;9.210;2023-02-22T08:05:19;6.90;99.90
46335;DHT22;32051;48.882;9.210;2023-02-22T08:07:45;6.90;99.90
46335;DHT22;32051;48.882;9.210;2023-02-22T08:10:13;6.90;99.90
46335;DHT22;32051;48.882;9.210;2023-02-22T08:12:39;7.00;99.90
46335;DHT22;32051;48.882;9.210;2023-02-22T08:15:08;7.10;99.90
46335;DHT22;32051;48.882;9.210;2023-02-22T08:17:34;7.10;99.90
46335;DHT22;32051;48.882;9.210;2023-02-22T08:20:00;7.20;99.90
46335;DHT22;32051;48.882;9.210;2023-02-22T08:34:43;8.00;99.90
46335;DHT22;32051;48.882;9.210;2023-02-22T08:37:09;8.10;99.90
46335;DHT22;32051;48.882;9.210;2023-02-22T08:39:35;8.20;99.90
46335;DHT22;32051;48.882;9.210;2023-02-22T08:42:01;8.40;99.90
46335;DHT22;32051;48.882;9.210;2023-02-22T08:44:27;8.60;99.90
46335;DHT22;32051;48.882;9.210;2023-02-22T08:46:53;8.60;99.90
46335;DHT22;32051;48.882;9.210;2023-02-22T08:49:20;8.80;99.90
46335;DHT22;32051;48.882;9.210;2023-02-22T08:51:45;8.90;99.90
46335;DHT22;32051;48.882;9.210;2023-02-22T08:54:11;9.10;99.90
46335;DHT22;32051;48.882;9.210;2023-02-22T08:56:37;9.20;99.90
46335;DHT22;32051;48.882;9.210;2023-02-22T08:59:02;8.00;99.90
46335;DHT22;32051;48.882;9.210;2023-02-22T09:01:28;9.70;99.90
46335;DHT22;32051;48.882;9.210;2023-02-22T09:03:54;10.10;99.90
46335;DHT22;32051;48.882;9.210;2023-02-22T09:06:21;10.20;99.90
46335;DHT22;32051;48.882;9.210;2023-02-22T09:08:47;10.60;99.90
46335;DHT22;32051;48.882;9.210;2023-02-22T09:13:39;11.00;99.90
46335;DHT22;32051;48.882;9.210;2023-02-22T09:46:32;12.10;99.90
46335;DHT22;32051;48.882;9.210;2023-02-22T09:51:42;12.50;99.90
46335;DHT22;32051;48.882;9.210;2023-02-22T09:54:18;12.60;99.90
46335;DHT22;32051;48.882;9.210;2023-02-22T09:56:47;12.70;99.90
46335;DHT22;32051;48.882;9.210;2023-02-22T09:59:19;12.90;99.90
46335;DHT22;32051;48.882;9.210;2023-02-22T10:01:48;13.00;99.90
46335;DHT22;32051;48.882;9.210;2023-02-22T10:04:41;13.20;99.90
46335;DHT22;32051;48.882;9.210;2023-02-22T10:09:43;13.50;99.90
46335;DHT22;32051;48.882;9.210;2023-02-22T10:12:24;13.50;99.90
46335;DHT22;32051;48.882;9.210;2023-02-22T10:23:37;14.10;99.90
46335;DHT22;32051;48.882;9.210;2023-02-22T10:26:17;14.20;99.90
46335;DHT22;32051;48.882;9.210;2023-02-22T10:28:59;14.30;99.90
46335;DHT22;32051;48.882;9.210;2023-02-22T10:31:30;14.40;99.90
46335;DHT22;32051;48.882;9.210;2023-02-22T10:34:01;14.40;99.90
46335;DHT22;32051;48.882;9.210;2023-02-22T10:36:27;14.50;99.90
46335;DHT22;32051;48.882;9.210;2023-02-22T10:39:26;14.60;99.90
46335;DHT22;32051;48.882;9.210;2023-02-22T10:41:56;14.60;99.90
46335;DHT22;32051;48.882;9.210;2023-02-22T10:44:23;14.50;99.90
46335;DHT22;32051;48.882;9.210;2023-02-22T10:46:49;14.30;99.90
46335;DHT22;32051;48.882;9.210;2023-02-22T10:49:22;14.10;99.90
46335;DHT22;32051;48.882;9.210;2023-02-22T10:52:13;13.90;99.90
46335;DHT22;32051;48.882;9.210;2023-02-22T10:54:41;13.80;99.90
46335;DHT22;32051;48.882;9.210;2023-02-22T10:57:10;13.70;99.90
46335;DHT22;32051;48.882;9.210;2023-02-22T10:59:39;13.70;99.90
46335;DHT22;32051;48.882;9.210;2023-02-22T11:04:54;14.20;99.90
46335;DHT22;32051;48.882;9.210;2023-02-22T11:10:01;15.30;99.90
46335;DHT22;32051;48.882;9.210;2023-02-22T11:12:35;15.80;99.90
46335;DHT22;32051;48.882;9.210;2023-02-22T11:17:43;16.30;96.30
46335;DHT22;32051;48.882;9.210;2023-02-22T11:20:24;16.40;96.50
46335;DHT22;32051;48.882;9.210;2023-02-22T11:22:52;16.20;96.60
46335;DHT22;32051;48.882;9.210;2023-02-22T11:25:33;15.90;96.20
46335;DHT22;32051;48.882;9.210;2023-02-22T11:28:27;15.70;96.30
46335;DHT22;32051;48.882;9.210;2023-02-22T11:31:12;15.70;96.50
46335;DHT22;32051;48.882;9.210;2023-02-22T11:33:39;15.70;96.30
46335;DHT22;32051;48.882;9.210;2023-02-22T11:36:10;15.70;96.30
46335;DHT22;32051;48.882;9.210;2023-02-22T11:38:53;16.30;96.00
46335;DHT22;32051;48.882;9.210;2023-02-22T11:46:40;17.60;93.90
46335;DHT22;32051;48.882;9.210;2023-02-22T11:49:09;17.90;93.00
46335;DHT22;32051;48.882;9.210;2023-02-22T11:52:14;18.50;92.70
46335;DHT22;32051;48.882;9.210;2023-02-22T12:02:28;19.70;91.20
46335;DHT22;32051;48.882;9.210;2023-02-22T12:07:40;19.50;89.80
46335;DHT22;32051;48.882;9.210;2023-02-22T12:10:37;19.40;90.90
46335;DHT22;32051;48.882;9.210;2023-02-22T12:21:26;19.60;90.50
46335;DHT22;32051;48.882;9.210;2023-02-22T12:24:04;19.10;90.90
46335;DHT22;32051;48.882;9.210;2023-02-22T12:26:37;18.70;91.30
46335;DHT22;32051;48.882;9.210;2023-02-22T12:29:08;18.70;91.90
46335;DHT22;32051;48.882;9.210;2023-02-22T12:31:49;18.50;92.00
46335;DHT22;32051;48.882;9.210;2023-02-22T12:37:22;17.90;92.60
46335;DHT22;32051;48.882;9.210;2023-02-22T12:40:09;17.70;92.90
46335;DHT22;32051;48.882;9.210;2023-02-22T12:50:41;17.50;93.30
46335;DHT22;32051;48.882;9.210;2023-02-22T12:53:16;17.70;94.10
46335;DHT22;32051;48.882;9.210;2023-02-22T12:55:50;17.90;92.50
46335;DHT22;32051;48.882;9.210;2023-02-22T12:58:28;18.30;92.70
46335;DHT22;32051;48.882;9.210;2023-02-22T13:01:15;18.60;91.90
46335;DHT22;32051;48.882;9.210;2023-02-22T13:03:44;18.70;91.50
46335;DHT22;32051;48.882;9.210;2023-02-22T13:16:35;19.90;91.00
46335;DHT22;32051;48.882;9.210;2023-02-22T13:19:18;20.70;90.00
46335;DHT22;32051;48.882;9.210;2023-02-22T13:34:54;22.00;99.90
46335;DHT22;32051;48.882;9.210;2023-02-22T13:37:44;21.90;83.00
46335;DHT22;32051;48.882;9.210;2023-02-22T13:40:17;21.50;85.00
46335;DHT22;32051;48.882;9.210;2023-02-22T13:54:23;19.60;88.00
46335;DHT22;32051;48.882;9.210;2023-02-22T13:56:50;19.60;90.90
46335;DHT22;32051;48.882;9.210;2023-02-22T13:59:36;19.20;90.40
46335;DHT22;32051;48.882;9.210;2023-02-22T14:02:03;18.80;90.80
46335;DHT22;32051;48.882;9.210;2023-02-22T14:17:45;17.10;99.90
46335;DHT22;32051;48.882;9.210;2023-02-22T14:22:48;16.60;95.10
46335;DHT22;32051;48.882;9.210;2023-02-22T14:25:38;16.40;95.50
46335;DHT22;32051;48.882;9.210;2023-02-22T14:28:41;16.30;96.30
46335;DHT22;32051;48.882;9.210;2023-02-22T14:31:09;16.20;96.40
46335;DHT22;32051;48.882;9.210;2023-02-22T14:34:00;15.90;97.20
46335;DHT22;32051;48.882;9.210;2023-02-22T14:47:20;15.20;99.30
46335;DHT22;32051;48.882;9.210;2023-02-22T14:49:50;15.00;99.60
46335;DHT22;32051;48.882;9.210;2023-02-22T14:52:25;14.90;99.90
46335;DHT22;32051;48.882;9.210;2023-02-22T14:54:56;14.90;99.90
46335;DHT22;32051;48.882;9.210;2023-02-22T14:57:48;14.90;99.90
46335;DHT22;32051;48.882;9.210;2023-02-22T15:00:22;14.90;99.90
46335;DHT22;32051;48.882;9.210;2023-02-22T15:02:58;14.90;99.90
46335;DHT22;32051;48.882;9.210;2023-02-22T15:05:27;14.90;99.90
46335;DHT22;32051;48.882;9.210;2023-02-22T15:07:57;14.80;99.90
46335;DHT22;32051;48.882;9.210;2023-02-22T15:10:29;14.80;99.90
46335;DHT22;32051;48.882;9.210;2023-02-22T15:13:02;14.80;99.90
46335;DHT22;32051;48.882;9.210;2023-02-22T15:15:35;14.70;99.90
46335;DHT22;32051;48.882;9.210;2023-02-22T15:18:02;14.60;99.90
46335;DHT22;32051;48.882;9.210;2023-02-22T15:20:33;14.60;99.90
46335;DHT22;32051;48.882;9.210;2023-02-22T15:23:00;14.50;99.90
46335;DHT22;32051;48.882;9.210;2023-02-22T15:25:28;14.50;99.90
46335;DHT22;32051;48.882;9.210;2023-02-22T15:28:01;14.40;99.90
46335;DHT22;32051;48.882;9.210;2023-02-22T15:30:29;14.30;99.90
46335;DHT22;32051;48.882;9.210;2023-02-22T15:33:09;14.30;99.90
46335;DHT22;32051;48.882;9.210;2023-02-22T15:35:35;14.20;99.90
46335;DHT22;32051;48.882;9.210;2023-02-22T15:38:03;14.20;99.90
46335;DHT22;32051;48.882;9.210;2023-02-22T15:40:31;14.10;99.90
46335;DHT22;32051;48.882;9.210;2023-02-22T15:43:06;14.10;99.90
46335;DHT22;32051;48.882;9.210;2023-02-22T15:45:35;14.10;99.90
46335;DHT22;32051;48.882;9.210;2023-02-22T15:48:11;14.10;99.90
46335;DHT22;32051;48.882;9.210;2023-02-22T15:50:37;14.10;99.90
46335;DHT22;32051;48.882;9.210;2023-02-22T15:53:27;14.00;99.90
46335;DHT22;32051;48.882;9.210;2023-02-22T15:55:59;14.00;99.90
46335;DHT22;32051;48.882;9.210;2023-02-22T15:58:26;14.00;99.90
46335;DHT22;32051;48.882;9.210;2023-02-22T16:01:09;13.90;99.90
46335;DHT22;32051;48.882;9.210;2023-02-22T16:03:39;13.80;99.90
46335;DHT22;32051;48.882;9.210;2023-02-22T16:06:36;13.80;99.90
46335;DHT22;32051;48.882;9.210;2023-02-22T16:09:25;13.70;99.90
46335;DHT22;32051;48.882;9.210;2023-02-22T16:12:09;13.70;99.90
46335;DHT22;32051;48.882;9.210;2023-02-22T16:14:46;13.60;99.90
46335;DHT22;32051;48.882;9.210;2023-02-22T16:17:37;13.60;99.90
46335;DHT22;32051;48.882;9.210;2023-02-22T16:22:42;13.50;99.90
46335;DHT22;32051;48.882;9.210;2023-02-22T16:28:00;13.40;99.90
46335;DHT22;32051;48.882;9.210;2023-02-22T16:30:36;13.40;99.90
46335;DHT22;32051;48.882;9.210;2023-02-22T16:33:04;13.30;99.90
46335;DHT22;32051;48.882;9.210;2023-02-22T16:35:30;13.30;99.90
46335;DHT22;32051;48.882;9.210;2023-02-22T16:38:02;13.20;99.90
46335;DHT22;32051;48.882;9.210;2023-02-22T16:43:05;13.20;99.90
46335;DHT22;32051;48.882;9.210;2023-02-22T16:45:31;13.10;99.90
46335;DHT22;32051;48.882;9.210;2023-02-22T16:47:58;13.10;99.90
46335;DHT22;32051;48.882;9.210;2023-02-22T16:50:23;13.00;99.90
46335;DHT22;32051;48.882;9.210;2023-02-22T16:52:52;12.90;99.90
46335;DHT22;32051;48.882;9.210;2023-02-22T16:55:20;12.90;99.90
46335;DHT22;32051;48.882;9.210;2023-02-22T16:57:47;12.80;99.90
46335;DHT22;32051;48.882;9.210;2023-02-22T17:00:21;12.70;99.90
46335;DHT22;32051;48.882;9.210;2023-02-22T17:02:57;12.60;99.90
46335;DHT22;32051;48.882;9.210;2023-02-22T17:05:22;12.60;99.90
46335;DHT22;32051;48.882;9.210;2023-02-22T17:07:48;12.50;99.90
46335;DHT22;32051;48.882;9.210;2023-02-22T17:10:15;12.40;99.90
46335;DHT22;32051;48.882;9.210;2023-02-22T17:12:47;12.30;99.90
46335;DHT22;32051;48.882;9.210;2023-02-22T17:15:26;12.30;99.90
46335;DHT22;32051;48.882;9.210;2023-02-22T17:17:54;12.20;99.90
46335;DHT22;32051;48.882;9.210;2023-02-22T17:20:20;12.20;99.90
46335;DHT22;32051;48.882;9.210;2023-02-22T17:22:58;12.20;99.90
46335;DHT22;32051;48.882;9.210;2023-02-22T17:25:36;12.10;99.90
46335;DHT22;32051;48.882;9.210;2023-02-22T17:28:03;12.10;99.90
46335;DHT22;32051;48.882;9.210;2023-02-22T17:30:29;12.20;99.90
46335;DHT22;32051;48.882;9.210;2023-02-22T17:32:58;12.30;99.90
46335;DHT22;32051;48.882;9.210;2023-02-22T17:35:30;13.00;99.90
46335;DHT22;32051;48.882;9.210;2023-02-22T17:37:57;13.00;99.90
46335;DHT22;32051;48.882;9.210;2023-02-22T17:40:25;12.30;99.90
46335;DHT22;32051;48.882;9.210;2023-02-22T17:42:51;12.10;99.90
46335;DHT22;32051;48.882;9.210;2023-02-22T17:45:21;12.00;99.90
46335;DHT22;32051;48.882;9.210;2023-02-22T17:47:49;12.00;99.90
46335;DHT22;32051;48.882;9.210;2023-02-22T17:50:15;12.00;99.90
46335;DHT22;32051;48.882;9.210;2023-02-22T17:52:42;11.90;99.90
46335;DHT22;32051;48.882;9.210;2023-02-22T17:55:09;11.90;99.90
46335;DHT22;32051;48.882;9.210;2023-02-22T17:57:36;12.20;99.90
46335;DHT22;32051;48.882;9.210;2023-02-22T18:00:05;11.80;99.90
46335;DHT22;32051;48.882;9.210;2023-02-22T18:02:39;11.80;99.90
46335;DHT22;32051;48.882;9.210;2023-02-22T18:05:10;11.70;99.90
46335;DHT22;32051;48.882;9.210;2023-02-22T18:07:36;11.70;99.90
46335;DHT22;32051;48.882;9.210;2023-02-22T18:10:04;11.60;99.90
46335;DHT22;32051;48.882;9.210;2023-02-22T20:23:36;10.90;99.90
46335;DHT22;32051;48.882;9.210;2023-02-22T20:26:07;10.80;99.90
46335;DHT22;32051;48.882;9.210;2023-02-22T20:28:37;10.80;99.90
46335;DHT22;32051;48.882;9.210;2023-02-22T20:31:07;10.70;99.90
46335;DHT22;32051;48.882;9.210;2023-02-22T20:33:35;10.60;99.90
46335;DHT22;32051;48.882;9.210;2023-02-22T20:36:05;10.60;99.90
46335;DHT22;32051;48.882;9.210;2023-02-22T20:38:30;10.50;99.90
46335;DHT22;32051;48.882;9.210;2023-02-22T20:40:56;10.50;99.90
46335;DHT22;32051;48.882;9.210;2023-02-22T20:43:22;10.50;99.90
46335;DHT22;32051;48.882;9.210;2023-02-22T20:45:48;10.50;99.90
46335;DHT22;32051;48.882;9.210;2023-02-22T20:48:13;10.50;99.90
46335;DHT22;32051;48.882;9.210;2023-02-22T20:50:39;10.60;99.90
46335;DHT22;32051;48.882;9.210;2023-02-22T20:53:04;10.60;99.90
46335;DHT22;32051;48.882;9.210;2023-02-22T20:55:30;10.60;99.90
46335;DHT22;32051;48.882;9.210;2023-02-22T20:57:56;10.60;99.90
46335;DHT22;32051;48.882;9.210;2023-02-22T21:00:22;10.60;99.90
46335;DHT22;32051;48.882;9.210;2023-02-22T21:02:48;10.60;99.90
46335;DHT22;32051;48.882;9.210;2023-02-22T21:05:14;10.60;99.90
46335;DHT22;32051;48.882;9.210;2023-02-22T21:07:39;10.60;99.90
46335;DHT22;32051;48.882;9.210;2023-02-22T21:10:05;10.60;99.90
46335;DHT22;32051;48.882;9.210;2023-02-22T21:12:32;10.50;99.90
46335;DHT22;32051;48.882;9.210;2023-02-22T21:14:59;10.50;99.90
46335;DHT22;32051;48.882;9.210;2023-02-22T21:17:24;10.40;99.90
46335;DHT22;32051;48.882;9.210;2023-02-22T21:19:56;10.30;99.90
46335;DHT22;32051;48.882;9.210;2023-02-22T21:22:23;10.20;99.90
46335;DHT22;32051;48.882;9.210;2023-02-22T21:24:50;10.20;99.90
46335;DHT22;32051;48.882;9.210;2023-02-22T21:27:16;10.10;99.90
46335;DHT22;32051;48.882;9.210;2023-02-22T21:29:41;10.00;99.90
46335;DHT22;32051;48.882;9.210;2023-02-22T21:32:08;10.00;99.90
46335;DHT22;32051;48.882;9.210;2023-02-22T21:34:34;10.00;99.90
46335;DHT22;32051;48.882;9.210;2023-02-22T21:39:26;9.90;99.90
46335;DHT22;32051;48.882;9.210;2023-02-22T21:41:54;9.80;99.90
46335;DHT22;32051;48.882;9.210;2023-02-22T21:44:25;9.80;99.90
46335;DHT22;32051;48.882;9.210;2023-02-22T21:46:51;9.80;99.90
46335;DHT22;32051;48.882;9.210;2023-02-22T21:49:17;9.80;99.90
46335;DHT22;32051;48.882;9.210;2023-02-22T21:51:43;9.80;99.90
46335;DHT22;32051;48.882;9.210;2023-02-22T21:54:09;9.80;99.90
46335;DHT22;32051;48.882;9.210;2023-02-22T21:56:39;9.80;99.90
46335;DHT22;32051;48.882;9.210;2023-02-22T21:59:17;9.80;99.90
46335;DHT22;32051;48.882;9.210;2023-02-22T22:01:49;9.80;99.90
46335;DHT22;32051;48.882;9.210;2023-02-22T22:04:17;9.80;99.90
46335;DHT22;32051;48.882;9.210;2023-02-22T22:06:45;9.80;99.90
46335;DHT22;32051;48.882;9.210;2023-02-22T22:09:11;9.80;99.90
46335;DHT22;32051;48.882;9.210;2023-02-22T22:11:53;9.70;99.90
46335;DHT22;32051;48.882;9.210;2023-02-22T22:14:20;9.70;99.90
46335;DHT22;32051;48.882;9.210;2023-02-22T22:16:54;9.60;99.90
46335;DHT22;32051;48.882;9.210;2023-02-22T22:19:23;9.60;99.90
46335;DHT22;32051;48.882;9.210;2023-02-22T22:21:49;9.50;99.90
46335;DHT22;32051;48.882;9.210;2023-02-22T22:24:18;9.50;99.90
46335;DHT22;32051;48.882;9.210;2023-02-22T22:26:49;9.50;99.90
46335;DHT22;32051;48.882;9.210;2023-02-22T22:29:20;9.50;99.90
46335;DHT22;32051;48.882;9.210;2023-02-22T22:31:48;9.40;99.90
46335;DHT22;32051;48.882;9.210;2023-02-22T22:34:13;9.40;99.90
46335;DHT22;32051;48.882;9.210;2023-02-22T22:36:39;9.40;99.90
46335;DHT22;32051;48.882;9.210;2023-02-22T22:39:05;9.40;99.90
46335;DHT22;32051;48.882;9.210;2023-02-22T22:41:43;9.40;99.90
46335;DHT22;32051;48.882;9.210;2023-02-22T22:44:10;9.40;99.90
46335;DHT22;32051;48.882;9.210;2023-02-22T22:46:37;9.40;99.90
46335;DHT22;32051;48.882;9.210;2023-02-22T22:49:08;9.40;99.90
46335;DHT22;32051;48.882;9.210;2023-02-22T22:51:35;9.40;99.90
46335;DHT22;32051;48.882;9.210;2023-02-22T22:54:02;9.40;99.90
46335;DHT22;32051;48.882;9.210;2023-02-22T22:56:27;9.40;99.90
46335;DHT22;32051;48.882;9.210;2023-02-22T22:58:57;9.40;99.90
46335;DHT22;32051;48.882;9.210;2023-02-22T23:01:26;9.40;99.90
46335;DHT22;32051;48.882;9.210;2023-02-22T23:03:54;9.30;99.90
46335;DHT22;32051;48.882;9.210;2023-02-22T23:06:26;9.30;99.90
46335;DHT22;32051;48.882;9.210;2023-02-22T23:11:52;9.30;99.90
46335;DHT22;32051;48.882;9.210;2023-02-22T23:14:21;9.30;99.90
46335;DHT22;32051;48.882;9.210;2023-02-22T23:16:49;9.30;99.90
46335;DHT22;32051;48.882;9.210;2023-02-22T23:19:15;9.30;99.90
46335;DHT22;32051;48.882;9.210;2023-02-22T23:21:41;9.30;99.90
46335;DHT22;32051;48.882;9.210;2023-02-22T23:24:13;9.30;99.90
46335;DHT22;32051;48.882;9.210;2023-02-22T23:26:43;9.40;99.90
46335;DHT22;32051;48.882;9.210;2023-02-22T23:29:14;9.40;99.90
46335;DHT22;32051;48.882;9.210;2023-02-22T23:31:40;9.40;99.90
46335;DHT22;32051;48.882;9.210;2023-02-22T23:34:06;9.40;99.90
46335;DHT22;32051;48.882;9.210;2023-02-22T23:36:38;9.30;99.90
46335;DHT22;32051;48.882;9.210;2023-02-22T23:39:06;9.30;99.90
46335;DHT22;32051;48.882;9.210;2023-02-22T23:41:31;9.20;99.90
46335;DHT22;32051;48.882;9.210;2023-02-22T23:44:01;9.20;99.90
46335;DHT22;32051;48.882;9.210;2023-02-22T23:46:27;9.20;99.90
46335;DHT22;32051;48.882;9.210;2023-02-22T23:48:57;9.20;99.90
46335;DHT22;32051;48.882;9.210;2023-02-22T23:51:27;9.20;99.90
46335;DHT22;32051;48.882;9.210;2023-02-22T23:53:55;9.20;99.90
46335;DHT22;32051;48.882;9.210;2023-02-22T23:56:24;9.20;99.90
46335;DHT22;32051;48.882;9.210;2023-02-22T23:58:52;9.20;99.90
